METAR AND TAF INFORMATION

METAR FOR TFFF
ADDS - METARS form results

(2205 UTC 12 April 2021)
Data provider http://aviationweather.gov/metar/data/
 
METAR text: TFFF 122200Z AUTO 06004KT 020V100 9999 -RA FEW019/// BKN025/// BKN037/// ///CB 25/23 Q1012 TEMPO 4000 SHRA
Conditions at: TFFF (LE LAMENTIN/MART, MQ) observed 2200 UTC 12 April 2021
Temperature: 25.0°C (77°F)
Dewpoint: 23.0°C (73°F) [RH = 89%]
Pressure (altimeter): 29.88 inches Hg (1012.0 mb)
Winds: from the ENE (60 degrees) at 5 MPH (4 knots; 2.1 m/s)
Visibility: 6 or more miles (10+ km)
Ceiling: 2500 feet AGL
Clouds: few clouds at 1900 feet AGL
broken clouds at 2500 feet AGL
broken clouds at 3700 feet AGL
Weather: -RA  (light rain)

METAR text: TFFF 122130Z AUTO 06003KT 9999 -RA FEW017/// SCT023/// BKN044/// ///CB 25/23 Q1012 TEMPO 4000 SHRA
Conditions at: TFFF (LE LAMENTIN/MART, MQ) observed 2130 UTC 12 April 2021
Temperature: 25.0°C (77°F)
Dewpoint: 23.0°C (73°F) [RH = 89%]
Pressure (altimeter): 29.88 inches Hg (1012.0 mb)
Winds: from the ENE (60 degrees) at 3 MPH (3 knots; 1.5 m/s)
Visibility: 6 or more miles (10+ km)
Ceiling: 4400 feet AGL
Clouds: few clouds at 1700 feet AGL
scattered clouds at 2300 feet AGL
broken clouds at 4400 feet AGL
Weather: -RA  (light rain)

Forecast for: AMD
Text: TAF AMD TFFF 121924Z 1219/1318 10008KT 9999 BKN025
Forecast period: 1900 UTC 12 April 2021 to 1800 UTC 13 April 2021
Forecast type: FROM: standard forecast or significant change
Winds: from the E (100 degrees) at 9 MPH (8 knots; 4.1 m/s)
Visibility: 6 or more miles (10+ km)
Ceiling: 2500 feet AGL
Clouds: broken clouds at 2500 feet AGL
Weather: no significant weather forecast for this period
Text: TEMPO 1219/1310 4000 SHRA BKN018TCU BKN020
Forecast period: 1900 UTC 12 April 2021 to 1000 UTC 13 April 2021
Forecast type: TEMPORARY: The following changes expected for less than half the time period
Visibility: 2.49 miles (4.01 km)
Ceiling: 1800 feet AGL
Clouds: broken clouds at 1800 feet AGL
broken clouds at 2000 feet AGL
Weather: SHRA  (rain showers)
Text: PROB40
Forecast period: 1900 to 2100 UTC 12 April 2021
Forecast type: TEMPORARY: The following changes expected for less than half the time period
Visibility: 1.55 miles (2.49 km)
Ceiling: 2000 feet AGL
Clouds: scattered clouds at 1500 feet AGL
broken clouds at 2000 feet AGL
Weather: TSRA  (rain associated with thunderstorm(s))

 

AIRPORT MAP

 

RUNWAY INFORMATION

Runway 10 Runway length 10826 ft Runway width 147 ft
Runway elevation 10 ft Runway displaced threshold 0 ft Runway heading 80
Runway 28 Runway length 10826 ft Runway width 147 ft
Runway elevation 14 ft Runway displaced threshold 984 ft Runway heading 260

 

AIRPORT FREQUENCIES

Type APP Name FORT DE FR Frequency 121 MHZ
Type ATIS Name ATIS Frequency 127.85 MHZ
Type GND Name GND Frequency 121.9 MHZ
Type TWR Name FORT DE FR Frequency 118.5 MHZ

 

AIRPORT NEAR NAVIGATION AIDS

Type VOR-DME Name Fort De France Frequency 113300 KHZ
Type NDB Name Fort De France Frequency 329 KHZ